sensor_id;sensor_type;location;lat;lon;timestamp;P1;durP1;ratioP1;P2;durP2;ratioP2
75283;SDS011;63877;48.702;44.594;2022-10-15T00:01:10;4.47;;;2.60;;
75283;SDS011;63877;48.702;44.594;2022-10-15T00:03:41;3.67;;;2.67;;
75283;SDS011;63877;48.702;44.594;2022-10-15T00:06:10;4.40;;;3.20;;
75283;SDS011;63877;48.702;44.594;2022-10-15T00:08:41;5.60;;;2.55;;
75283;SDS011;63877;48.702;44.594;2022-10-15T00:11:10;3.17;;;1.52;;
75283;SDS011;63877;48.702;44.594;2022-10-15T00:13:39;4.10;;;2.63;;
75283;SDS011;63877;48.702;44.594;2022-10-15T00:16:09;3.10;;;1.50;;
75283;SDS011;63877;48.702;44.594;2022-10-15T00:18:38;4.55;;;2.08;;
75283;SDS011;63877;48.702;44.594;2022-10-15T00:21:05;7.88;;;3.72;;
75283;SDS011;63877;48.702;44.594;2022-10-15T00:23:32;12.75;;;6.30;;
75283;SDS011;63877;48.702;44.594;2022-10-15T00:26:03;12.15;;;6.28;;
75283;SDS011;63877;48.702;44.594;2022-10-15T00:28:34;17.23;;;8.05;;
75283;SDS011;63877;48.702;44.594;2022-10-15T00:31:00;12.05;;;6.30;;
75283;SDS011;63877;48.702;44.594;2022-10-15T00:33:31;16.70;;;7.45;;
75283;SDS011;63877;48.702;44.594;2022-10-15T00:36:09;14.18;;;6.65;;
75283;SDS011;63877;48.702;44.594;2022-10-15T00:38:37;11.52;;;4.68;;
75283;SDS011;63877;48.702;44.594;2022-10-15T00:41:05;6.88;;;3.88;;
75283;SDS011;63877;48.702;44.594;2022-10-15T00:46:01;17.00;;;5.75;;
75283;SDS011;63877;48.702;44.594;2022-10-15T00:48:28;11.55;;;4.68;;
75283;SDS011;63877;48.702;44.594;2022-10-15T00:50:55;11.77;;;4.20;;
75283;SDS011;63877;48.702;44.594;2022-10-15T00:53:22;12.02;;;6.32;;
75283;SDS011;63877;48.702;44.594;2022-10-15T00:55:49;11.07;;;5.50;;
75283;SDS011;63877;48.702;44.594;2022-10-15T00:58:16;7.32;;;4.35;;
75283;SDS011;63877;48.702;44.594;2022-10-15T01:00:54;14.13;;;5.03;;
75283;SDS011;63877;48.702;44.594;2022-10-15T01:03:20;14.70;;;5.10;;
75283;SDS011;63877;48.702;44.594;2022-10-15T01:05:47;18.45;;;6.13;;
75283;SDS011;63877;48.702;44.594;2022-10-15T01:08:15;16.13;;;5.15;;
75283;SDS011;63877;48.702;44.594;2022-10-15T01:11:15;9.35;;;3.88;;
75283;SDS011;63877;48.702;44.594;2022-10-15T01:13:40;5.13;;;2.65;;
75283;SDS011;63877;48.702;44.594;2022-10-15T01:16:34;10.38;;;4.20;;
75283;SDS011;63877;48.702;44.594;2022-10-15T01:22:08;4.78;;;2.72;;
75283;SDS011;63877;48.702;44.594;2022-10-15T01:27:30;5.80;;;3.70;;
75283;SDS011;63877;48.702;44.594;2022-10-15T01:30:04;6.25;;;2.95;;
75283;SDS011;63877;48.702;44.594;2022-10-15T01:32:56;6.45;;;1.88;;
75283;SDS011;63877;48.702;44.594;2022-10-15T01:38:02;4.88;;;3.88;;
75283;SDS011;63877;48.702;44.594;2022-10-15T01:46:36;4.47;;;2.30;;
75283;SDS011;63877;48.702;44.594;2022-10-15T01:49:19;3.08;;;2.65;;
75283;SDS011;63877;48.702;44.594;2022-10-15T01:51:50;4.97;;;1.73;;
75283;SDS011;63877;48.702;44.594;2022-10-15T01:54:18;9.07;;;2.03;;
75283;SDS011;63877;48.702;44.594;2022-10-15T01:56:47;7.45;;;2.35;;
75283;SDS011;63877;48.702;44.594;2022-10-15T01:59:19;3.85;;;2.17;;
75283;SDS011;63877;48.702;44.594;2022-10-15T02:01:48;8.48;;;2.65;;
75283;SDS011;63877;48.702;44.594;2022-10-15T02:04:21;5.70;;;1.80;;
75283;SDS011;63877;48.702;44.594;2022-10-15T02:06:51;3.53;;;1.70;;
75283;SDS011;63877;48.702;44.594;2022-10-15T02:09:49;5.90;;;1.80;;
75283;SDS011;63877;48.702;44.594;2022-10-15T02:18:46;7.63;;;1.70;;
75283;SDS011;63877;48.702;44.594;2022-10-15T02:21:19;5.13;;;2.85;;
75283;SDS011;63877;48.702;44.594;2022-10-15T02:24:52;7.95;;;3.05;;
75283;SDS011;63877;48.702;44.594;2022-10-15T02:26:48;6.90;;;2.45;;
75283;SDS011;63877;48.702;44.594;2022-10-15T02:29:18;6.78;;;3.38;;
75283;SDS011;63877;48.702;44.594;2022-10-15T02:31:48;14.50;;;4.10;;
75283;SDS011;63877;48.702;44.594;2022-10-15T02:34:16;4.90;;;1.95;;
75283;SDS011;63877;48.702;44.594;2022-10-15T02:36:44;4.47;;;1.70;;
75283;SDS011;63877;48.702;44.594;2022-10-15T02:39:12;3.85;;;2.92;;
75283;SDS011;63877;48.702;44.594;2022-10-15T02:41:47;4.78;;;2.92;;
75283;SDS011;63877;48.702;44.594;2022-10-15T02:44:13;6.13;;;2.80;;
75283;SDS011;63877;48.702;44.594;2022-10-15T02:46:39;3.85;;;2.00;;
75283;SDS011;63877;48.702;44.594;2022-10-15T02:49:05;4.68;;;3.72;;
75283;SDS011;63877;48.702;44.594;2022-10-15T02:51:32;5.88;;;3.28;;
75283;SDS011;63877;48.702;44.594;2022-10-15T02:53:59;5.00;;;2.80;;
75283;SDS011;63877;48.702;44.594;2022-10-15T02:56:26;8.02;;;3.40;;
75283;SDS011;63877;48.702;44.594;2022-10-15T02:58:52;2.35;;;1.60;;
75283;SDS011;63877;48.702;44.594;2022-10-15T03:01:19;7.78;;;3.03;;
75283;SDS011;63877;48.702;44.594;2022-10-15T03:03:45;12.63;;;3.30;;
75283;SDS011;63877;48.702;44.594;2022-10-15T03:06:12;4.95;;;2.90;;
75283;SDS011;63877;48.702;44.594;2022-10-15T03:08:39;22.38;;;3.72;;
75283;SDS011;63877;48.702;44.594;2022-10-15T03:11:08;5.22;;;2.83;;
75283;SDS011;63877;48.702;44.594;2022-10-15T03:13:35;4.25;;;2.92;;
75283;SDS011;63877;48.702;44.594;2022-10-15T03:16:05;6.38;;;3.05;;
75283;SDS011;63877;48.702;44.594;2022-10-15T03:18:38;16.73;;;4.30;;
75283;SDS011;63877;48.702;44.594;2022-10-15T03:21:03;5.40;;;3.10;;
75283;SDS011;63877;48.702;44.594;2022-10-15T03:23:31;3.85;;;2.53;;
75283;SDS011;63877;48.702;44.594;2022-10-15T03:26:05;7.10;;;2.95;;
75283;SDS011;63877;48.702;44.594;2022-10-15T03:28:31;9.48;;;4.22;;
75283;SDS011;63877;48.702;44.594;2022-10-15T03:30:58;7.00;;;2.20;;
75283;SDS011;63877;48.702;44.594;2022-10-15T03:33:25;5.78;;;3.17;;
75283;SDS011;63877;48.702;44.594;2022-10-15T03:35:53;14.48;;;5.00;;
75283;SDS011;63877;48.702;44.594;2022-10-15T03:38:21;12.82;;;2.47;;
75283;SDS011;63877;48.702;44.594;2022-10-15T03:40:49;4.43;;;3.33;;
75283;SDS011;63877;48.702;44.594;2022-10-15T03:43:35;3.50;;;2.47;;
75283;SDS011;63877;48.702;44.594;2022-10-15T03:46:05;3.50;;;2.45;;
75283;SDS011;63877;48.702;44.594;2022-10-15T03:48:35;4.63;;;3.28;;
75283;SDS011;63877;48.702;44.594;2022-10-15T03:51:01;3.20;;;2.03;;
75283;SDS011;63877;48.702;44.594;2022-10-15T03:53:27;5.60;;;3.50;;
75283;SDS011;63877;48.702;44.594;2022-10-15T03:55:53;4.65;;;2.33;;
75283;SDS011;63877;48.702;44.594;2022-10-15T03:58:19;4.65;;;2.45;;
75283;SDS011;63877;48.702;44.594;2022-10-15T04:00:53;6.25;;;2.45;;
75283;SDS011;63877;48.702;44.594;2022-10-15T04:03:20;3.58;;;1.67;;
75283;SDS011;63877;48.702;44.594;2022-10-15T04:05:50;4.88;;;2.70;;
75283;SDS011;63877;48.702;44.594;2022-10-15T04:08:18;9.45;;;3.78;;
75283;SDS011;63877;48.702;44.594;2022-10-15T04:10:44;5.65;;;2.15;;
75283;SDS011;63877;48.702;44.594;2022-10-15T04:13:10;10.88;;;2.80;;
75283;SDS011;63877;48.702;44.594;2022-10-15T04:15:40;5.90;;;2.97;;
75283;SDS011;63877;48.702;44.594;2022-10-15T04:18:09;3.83;;;1.98;;
75283;SDS011;63877;48.702;44.594;2022-10-15T04:20:36;5.70;;;3.30;;
75283;SDS011;63877;48.702;44.594;2022-10-15T04:23:16;6.05;;;2.75;;
75283;SDS011;63877;48.702;44.594;2022-10-15T04:25:59;1.65;;;1.15;;
75283;SDS011;63877;48.702;44.594;2022-10-15T04:28:26;4.50;;;1.75;;
75283;SDS011;63877;48.702;44.594;2022-10-15T04:30:56;3.65;;;1.90;;
75283;SDS011;63877;48.702;44.594;2022-10-15T04:33:23;6.00;;;2.47;;
75283;SDS011;63877;48.702;44.594;2022-10-15T04:36:00;3.47;;;2.25;;
75283;SDS011;63877;48.702;44.594;2022-10-15T04:38:46;3.35;;;2.47;;
75283;SDS011;63877;48.702;44.594;2022-10-15T04:41:15;5.32;;;2.03;;
75283;SDS011;63877;48.702;44.594;2022-10-15T04:43:52;2.42;;;2.10;;
75283;SDS011;63877;48.702;44.594;2022-10-15T04:46:19;9.25;;;3.20;;
75283;SDS011;63877;48.702;44.594;2022-10-15T04:48:47;6.45;;;3.60;;
75283;SDS011;63877;48.702;44.594;2022-10-15T04:51:18;2.97;;;2.72;;
75283;SDS011;63877;48.702;44.594;2022-10-15T04:54:23;7.28;;;3.83;;
75283;SDS011;63877;48.702;44.594;2022-10-15T04:56:56;4.63;;;2.88;;
75283;SDS011;63877;48.702;44.594;2022-10-15T04:59:23;4.53;;;1.95;;
75283;SDS011;63877;48.702;44.594;2022-10-15T05:02:17;9.98;;;2.80;;
75283;SDS011;63877;48.702;44.594;2022-10-15T05:04:48;5.20;;;2.60;;
75283;SDS011;63877;48.702;44.594;2022-10-15T05:07:14;9.38;;;2.80;;
75283;SDS011;63877;48.702;44.594;2022-10-15T05:09:40;4.05;;;2.35;;
75283;SDS011;63877;48.702;44.594;2022-10-15T05:12:06;3.72;;;1.88;;
75283;SDS011;63877;48.702;44.594;2022-10-15T05:14:33;5.88;;;2.38;;
75283;SDS011;63877;48.702;44.594;2022-10-15T05:19:56;2.67;;;1.02;;
75283;SDS011;63877;48.702;44.594;2022-10-15T05:22:26;3.33;;;1.60;;
75283;SDS011;63877;48.702;44.594;2022-10-15T05:24:56;4.90;;;2.00;;
75283;SDS011;63877;48.702;44.594;2022-10-15T05:27:27;7.10;;;2.03;;
75283;SDS011;63877;48.702;44.594;2022-10-15T05:29:53;2.67;;;1.63;;
75283;SDS011;63877;48.702;44.594;2022-10-15T05:32:19;2.75;;;1.38;;
75283;SDS011;63877;48.702;44.594;2022-10-15T05:34:45;2.10;;;1.75;;
75283;SDS011;63877;48.702;44.594;2022-10-15T05:37:14;3.80;;;2.65;;
75283;SDS011;63877;48.702;44.594;2022-10-15T05:39:41;3.30;;;1.58;;
75283;SDS011;63877;48.702;44.594;2022-10-15T05:42:08;4.32;;;1.80;;
75283;SDS011;63877;48.702;44.594;2022-10-15T05:44:38;3.78;;;2.50;;
75283;SDS011;63877;48.702;44.594;2022-10-15T05:47:04;4.07;;;1.90;;
75283;SDS011;63877;48.702;44.594;2022-10-15T05:49:32;1.67;;;1.00;;
75283;SDS011;63877;48.702;44.594;2022-10-15T05:52:08;3.47;;;1.83;;
75283;SDS011;63877;48.702;44.594;2022-10-15T05:54:55;2.45;;;1.83;;
75283;SDS011;63877;48.702;44.594;2022-10-15T05:57:21;5.63;;;2.28;;
75283;SDS011;63877;48.702;44.594;2022-10-15T05:59:47;4.28;;;1.90;;
75283;SDS011;63877;48.702;44.594;2022-10-15T06:02:14;6.28;;;2.15;;
75283;SDS011;63877;48.702;44.594;2022-10-15T06:04:43;1.75;;;0.68;;
75283;SDS011;63877;48.702;44.594;2022-10-15T06:07:09;3.92;;;2.05;;
75283;SDS011;63877;48.702;44.594;2022-10-15T06:09:35;3.63;;;2.08;;
75283;SDS011;63877;48.702;44.594;2022-10-15T06:12:01;2.97;;;1.55;;
75283;SDS011;63877;48.702;44.594;2022-10-15T06:14:27;4.50;;;2.58;;
75283;SDS011;63877;48.702;44.594;2022-10-15T06:16:54;5.22;;;3.10;;
75283;SDS011;63877;48.702;44.594;2022-10-15T06:19:20;2.72;;;1.70;;
75283;SDS011;63877;48.702;44.594;2022-10-15T06:21:46;2.95;;;1.85;;
75283;SDS011;63877;48.702;44.594;2022-10-15T06:24:12;2.00;;;1.75;;
75283;SDS011;63877;48.702;44.594;2022-10-15T06:26:38;4.53;;;2.00;;
75283;SDS011;63877;48.702;44.594;2022-10-15T06:29:04;4.55;;;2.00;;
75283;SDS011;63877;48.702;44.594;2022-10-15T06:31:30;3.72;;;1.50;;
75283;SDS011;63877;48.702;44.594;2022-10-15T06:33:56;4.63;;;1.60;;
75283;SDS011;63877;48.702;44.594;2022-10-15T06:36:22;2.40;;;1.77;;
75283;SDS011;63877;48.702;44.594;2022-10-15T06:38:51;3.05;;;1.70;;
75283;SDS011;63877;48.702;44.594;2022-10-15T06:41:17;3.97;;;1.25;;
75283;SDS011;63877;48.702;44.594;2022-10-15T06:43:43;3.10;;;1.45;;
75283;SDS011;63877;48.702;44.594;2022-10-15T06:46:12;2.03;;;1.60;;
75283;SDS011;63877;48.702;44.594;2022-10-15T06:48:38;2.42;;;1.25;;
75283;SDS011;63877;48.702;44.594;2022-10-15T06:51:04;2.33;;;1.05;;
75283;SDS011;63877;48.702;44.594;2022-10-15T06:53:30;2.80;;;1.20;;
75283;SDS011;63877;48.702;44.594;2022-10-15T06:56:00;6.95;;;1.83;;
75283;SDS011;63877;48.702;44.594;2022-10-15T06:58:29;3.53;;;1.50;;
75283;SDS011;63877;48.702;44.594;2022-10-15T07:00:59;5.90;;;1.52;;
75283;SDS011;63877;48.702;44.594;2022-10-15T07:03:29;6.03;;;1.63;;
75283;SDS011;63877;48.702;44.594;2022-10-15T07:05:55;3.38;;;1.88;;
75283;SDS011;63877;48.702;44.594;2022-10-15T07:08:21;4.07;;;2.15;;
75283;SDS011;63877;48.702;44.594;2022-10-15T07:10:46;5.97;;;2.22;;
75283;SDS011;63877;48.702;44.594;2022-10-15T07:13:12;2.92;;;1.13;;
75283;SDS011;63877;48.702;44.594;2022-10-15T07:15:38;4.78;;;2.22;;
75283;SDS011;63877;48.702;44.594;2022-10-15T07:18:05;1.52;;;1.13;;
75283;SDS011;63877;48.702;44.594;2022-10-15T07:20:31;5.47;;;1.17;;
75283;SDS011;63877;48.702;44.594;2022-10-15T07:23:00;3.95;;;1.70;;
75283;SDS011;63877;48.702;44.594;2022-10-15T07:25:32;3.55;;;1.60;;
75283;SDS011;63877;48.702;44.594;2022-10-15T07:27:58;4.57;;;1.95;;
75283;SDS011;63877;48.702;44.594;2022-10-15T07:30:24;6.75;;;1.92;;
75283;SDS011;63877;48.702;44.594;2022-10-15T07:32:59;2.53;;;1.98;;
75283;SDS011;63877;48.702;44.594;2022-10-15T07:35:25;2.90;;;1.58;;
75283;SDS011;63877;48.702;44.594;2022-10-15T07:37:52;3.40;;;1.23;;
75283;SDS011;63877;48.702;44.594;2022-10-15T07:40:18;5.03;;;2.15;;
75283;SDS011;63877;48.702;44.594;2022-10-15T07:42:44;2.78;;;1.98;;
75283;SDS011;63877;48.702;44.594;2022-10-15T07:45:16;3.90;;;1.85;;
75283;SDS011;63877;48.702;44.594;2022-10-15T07:47:42;7.15;;;2.28;;
75283;SDS011;63877;48.702;44.594;2022-10-15T07:50:11;6.15;;;2.15;;
75283;SDS011;63877;48.702;44.594;2022-10-15T07:52:37;3.97;;;2.38;;
75283;SDS011;63877;48.702;44.594;2022-10-15T07:55:03;5.63;;;3.13;;
75283;SDS011;63877;48.702;44.594;2022-10-15T07:57:29;5.80;;;2.17;;
75283;SDS011;63877;48.702;44.594;2022-10-15T07:59:55;4.55;;;1.05;;
75283;SDS011;63877;48.702;44.594;2022-10-15T08:02:21;3.85;;;1.58;;
75283;SDS011;63877;48.702;44.594;2022-10-15T08:04:47;2.80;;;1.83;;
75283;SDS011;63877;48.702;44.594;2022-10-15T08:07:12;2.85;;;1.25;;
75283;SDS011;63877;48.702;44.594;2022-10-15T08:09:38;1.98;;;1.65;;
75283;SDS011;63877;48.702;44.594;2022-10-15T08:12:04;3.33;;;1.38;;
75283;SDS011;63877;48.702;44.594;2022-10-15T08:14:32;2.50;;;1.27;;
75283;SDS011;63877;48.702;44.594;2022-10-15T08:16:58;2.60;;;1.30;;
75283;SDS011;63877;48.702;44.594;2022-10-15T08:19:25;2.72;;;1.48;;
75283;SDS011;63877;48.702;44.594;2022-10-15T08:21:51;3.55;;;1.33;;
75283;SDS011;63877;48.702;44.594;2022-10-15T08:24:17;3.78;;;1.55;;
75283;SDS011;63877;48.702;44.594;2022-10-15T08:26:43;2.67;;;1.35;;
75283;SDS011;63877;48.702;44.594;2022-10-15T08:29:09;2.63;;;1.55;;
75283;SDS011;63877;48.702;44.594;2022-10-15T08:31:35;4.28;;;1.40;;
75283;SDS011;63877;48.702;44.594;2022-10-15T08:34:01;2.72;;;1.92;;
75283;SDS011;63877;48.702;44.594;2022-10-15T08:36:27;3.47;;;1.52;;
75283;SDS011;63877;48.702;44.594;2022-10-15T08:38:53;3.95;;;1.73;;
75283;SDS011;63877;48.702;44.594;2022-10-15T08:41:31;2.55;;;1.67;;
75283;SDS011;63877;48.702;44.594;2022-10-15T08:44:01;3.85;;;2.30;;
75283;SDS011;63877;48.702;44.594;2022-10-15T08:46:30;3.60;;;2.53;;
75283;SDS011;63877;48.702;44.594;2022-10-15T08:49:02;2.85;;;1.92;;
75283;SDS011;63877;48.702;44.594;2022-10-15T08:51:43;5.00;;;2.20;;
75283;SDS011;63877;48.702;44.594;2022-10-15T08:54:14;4.07;;;2.08;;
75283;SDS011;63877;48.702;44.594;2022-10-15T08:56:42;3.00;;;1.58;;
75283;SDS011;63877;48.702;44.594;2022-10-15T09:01:47;6.93;;;2.05;;
75283;SDS011;63877;48.702;44.594;2022-10-15T09:04:21;5.43;;;2.03;;
75283;SDS011;63877;48.702;44.594;2022-10-15T09:06:50;9.00;;;1.92;;
75283;SDS011;63877;48.702;44.594;2022-10-15T09:15:15;3.17;;;1.70;;
75283;SDS011;63877;48.702;44.594;2022-10-15T09:17:43;2.92;;;1.38;;
75283;SDS011;63877;48.702;44.594;2022-10-15T09:20:15;7.70;;;1.83;;
75283;SDS011;63877;48.702;44.594;2022-10-15T09:22:49;2.67;;;1.40;;
75283;SDS011;63877;48.702;44.594;2022-10-15T09:25:18;2.28;;;1.65;;
75283;SDS011;63877;48.702;44.594;2022-10-15T09:27:46;2.72;;;1.35;;
75283;SDS011;63877;48.702;44.594;2022-10-15T09:30:20;1.80;;;1.17;;
75283;SDS011;63877;48.702;44.594;2022-10-15T09:33:14;3.42;;;1.80;;
75283;SDS011;63877;48.702;44.594;2022-10-15T09:35:51;5.70;;;2.25;;
75283;SDS011;63877;48.702;44.594;2022-10-15T09:38:30;2.67;;;1.38;;
75283;SDS011;63877;48.702;44.594;2022-10-15T09:44:34;4.20;;;2.25;;
75283;SDS011;63877;48.702;44.594;2022-10-15T09:47:13;3.67;;;1.65;;
75283;SDS011;63877;48.702;44.594;2022-10-15T09:49:48;1.70;;;1.00;;
75283;SDS011;63877;48.702;44.594;2022-10-15T09:52:24;1.77;;;0.80;;
75283;SDS011;63877;48.702;44.594;2022-10-15T09:57:47;2.30;;;1.42;;
75283;SDS011;63877;48.702;44.594;2022-10-15T10:00:18;8.07;;;2.00;;
75283;SDS011;63877;48.702;44.594;2022-10-15T10:02:44;4.32;;;1.30;;
75283;SDS011;63877;48.702;44.594;2022-10-15T10:05:32;6.03;;;2.65;;
75283;SDS011;63877;48.702;44.594;2022-10-15T10:08:13;4.90;;;2.55;;
75283;SDS011;63877;48.702;44.594;2022-10-15T10:10:53;8.82;;;4.25;;
75283;SDS011;63877;48.702;44.594;2022-10-15T10:13:25;7.18;;;3.25;;
75283;SDS011;63877;48.702;44.594;2022-10-15T10:15:56;3.35;;;2.47;;
75283;SDS011;63877;48.702;44.594;2022-10-15T10:18:36;7.82;;;2.63;;
75283;SDS011;63877;48.702;44.594;2022-10-15T10:21:08;2.75;;;1.45;;
75283;SDS011;63877;48.702;44.594;2022-10-15T10:23:46;7.10;;;1.88;;
75283;SDS011;63877;48.702;44.594;2022-10-15T10:26:12;2.40;;;1.17;;
75283;SDS011;63877;48.702;44.594;2022-10-15T10:31:07;4.38;;;1.27;;
75283;SDS011;63877;48.702;44.594;2022-10-15T10:36:06;2.88;;;1.50;;
75283;SDS011;63877;48.702;44.594;2022-10-15T10:38:43;2.17;;;1.70;;
75283;SDS011;63877;48.702;44.594;2022-10-15T10:41:51;3.35;;;1.75;;
75283;SDS011;63877;48.702;44.594;2022-10-15T10:44:36;1.95;;;1.00;;
75283;SDS011;63877;48.702;44.594;2022-10-15T10:49:42;3.25;;;1.45;;
75283;SDS011;63877;48.702;44.594;2022-10-15T10:52:27;3.17;;;1.33;;
75283;SDS011;63877;48.702;44.594;2022-10-15T10:54:59;4.28;;;2.30;;
75283;SDS011;63877;48.702;44.594;2022-10-15T11:00:16;5.10;;;1.55;;
75283;SDS011;63877;48.702;44.594;2022-10-15T11:02:47;3.13;;;1.90;;
75283;SDS011;63877;48.702;44.594;2022-10-15T11:05:14;2.60;;;1.55;;
75283;SDS011;63877;48.702;44.594;2022-10-15T11:08:09;3.60;;;1.70;;
75283;SDS011;63877;48.702;44.594;2022-10-15T11:16:09;4.32;;;1.30;;
75283;SDS011;63877;48.702;44.594;2022-10-15T11:19:17;3.75;;;1.77;;
75283;SDS011;63877;48.702;44.594;2022-10-15T11:27:57;4.07;;;1.92;;
75283;SDS011;63877;48.702;44.594;2022-10-15T11:30:30;2.20;;;1.25;;
75283;SDS011;63877;48.702;44.594;2022-10-15T11:33:18;2.08;;;1.20;;
75283;SDS011;63877;48.702;44.594;2022-10-15T11:36:17;3.67;;;1.50;;
75283;SDS011;63877;48.702;44.594;2022-10-15T11:39:06;2.05;;;1.48;;
75283;SDS011;63877;48.702;44.594;2022-10-15T11:44:26;6.15;;;2.38;;
75283;SDS011;63877;48.702;44.594;2022-10-15T11:47:33;5.35;;;1.42;;
75283;SDS011;63877;48.702;44.594;2022-10-15T11:58:49;4.68;;;2.70;;
75283;SDS011;63877;48.702;44.594;2022-10-15T12:04:05;2.90;;;1.88;;
75283;SDS011;63877;48.702;44.594;2022-10-15T12:06:39;2.50;;;1.35;;
75283;SDS011;63877;48.702;44.594;2022-10-15T12:09:13;2.20;;;1.20;;
75283;SDS011;63877;48.702;44.594;2022-10-15T12:20:20;4.75;;;1.75;;
75283;SDS011;63877;48.702;44.594;2022-10-15T12:30:33;2.63;;;1.13;;
75283;SDS011;63877;48.702;44.594;2022-10-15T12:33:02;3.25;;;1.70;;
75283;SDS011;63877;48.702;44.594;2022-10-15T12:35:52;2.72;;;0.93;;
75283;SDS011;63877;48.702;44.594;2022-10-15T12:38:41;1.58;;;0.95;;
75283;SDS011;63877;48.702;44.594;2022-10-15T12:41:09;7.93;;;1.67;;
75283;SDS011;63877;48.702;44.594;2022-10-15T12:43:41;2.67;;;1.25;;
75283;SDS011;63877;48.702;44.594;2022-10-15T12:46:10;3.60;;;1.50;;
75283;SDS011;63877;48.702;44.594;2022-10-15T12:48:42;3.60;;;2.20;;
75283;SDS011;63877;48.702;44.594;2022-10-15T12:53:42;2.50;;;1.30;;
75283;SDS011;63877;48.702;44.594;2022-10-15T12:58:40;2.15;;;1.05;;
75283;SDS011;63877;48.702;44.594;2022-10-15T13:08:52;5.55;;;1.40;;
75283;SDS011;63877;48.702;44.594;2022-10-15T13:11:35;3.67;;;1.42;;
75283;SDS011;63877;48.702;44.594;2022-10-15T13:16:43;8.60;;;3.40;;
75283;SDS011;63877;48.702;44.594;2022-10-15T13:19:17;7.95;;;2.25;;
75283;SDS011;63877;48.702;44.594;2022-10-15T13:24:20;4.13;;;2.45;;
75283;SDS011;63877;48.702;44.594;2022-10-15T13:26:48;5.53;;;2.15;;
75283;SDS011;63877;48.702;44.594;2022-10-15T13:29:16;5.93;;;2.20;;
75283;SDS011;63877;48.702;44.594;2022-10-15T13:31:44;5.70;;;1.92;;
75283;SDS011;63877;48.702;44.594;2022-10-15T13:34:20;6.05;;;1.98;;
75283;SDS011;63877;48.702;44.594;2022-10-15T13:36:57;10.73;;;2.60;;
75283;SDS011;63877;48.702;44.594;2022-10-15T13:39:29;3.55;;;1.83;;
75283;SDS011;63877;48.702;44.594;2022-10-15T13:42:06;4.45;;;2.60;;
75283;SDS011;63877;48.702;44.594;2022-10-15T13:44:32;6.60;;;2.28;;
75283;SDS011;63877;48.702;44.594;2022-10-15T13:46:58;5.60;;;2.42;;
75283;SDS011;63877;48.702;44.594;2022-10-15T13:49:24;4.72;;;3.65;;
75283;SDS011;63877;48.702;44.594;2022-10-15T13:51:51;9.40;;;4.15;;
75283;SDS011;63877;48.702;44.594;2022-10-15T13:54:19;13.40;;;6.97;;
75283;SDS011;63877;48.702;44.594;2022-10-15T13:56:54;12.95;;;4.55;;
75283;SDS011;63877;48.702;44.594;2022-10-15T13:59:27;9.10;;;4.90;;
75283;SDS011;63877;48.702;44.594;2022-10-15T14:04:27;8.77;;;3.75;;
75283;SDS011;63877;48.702;44.594;2022-10-15T14:06:58;11.25;;;5.18;;
75283;SDS011;63877;48.702;44.594;2022-10-15T14:09:30;14.48;;;4.35;;
75283;SDS011;63877;48.702;44.594;2022-10-15T14:11:59;18.17;;;4.35;;
75283;SDS011;63877;48.702;44.594;2022-10-15T14:14:36;12.15;;;4.07;;
75283;SDS011;63877;48.702;44.594;2022-10-15T14:17:10;15.05;;;6.28;;
75283;SDS011;63877;48.702;44.594;2022-10-15T14:19:55;17.45;;;7.75;;
75283;SDS011;63877;48.702;44.594;2022-10-15T14:22:24;16.00;;;6.60;;
75283;SDS011;63877;48.702;44.594;2022-10-15T14:24:53;7.22;;;4.13;;
75283;SDS011;63877;48.702;44.594;2022-10-15T14:27:21;8.30;;;3.58;;
75283;SDS011;63877;48.702;44.594;2022-10-15T14:29:58;10.38;;;5.63;;
75283;SDS011;63877;48.702;44.594;2022-10-15T14:34:55;20.65;;;7.10;;
75283;SDS011;63877;48.702;44.594;2022-10-15T14:42:32;13.68;;;6.57;;
75283;SDS011;63877;48.702;44.594;2022-10-15T14:45:17;18.05;;;6.75;;
75283;SDS011;63877;48.702;44.594;2022-10-15T14:47:56;15.45;;;5.80;;
75283;SDS011;63877;48.702;44.594;2022-10-15T14:50:33;14.50;;;5.60;;
75283;SDS011;63877;48.702;44.594;2022-10-15T14:53:13;17.80;;;6.05;;
75283;SDS011;63877;48.702;44.594;2022-10-15T14:55:47;14.65;;;5.88;;
75283;SDS011;63877;48.702;44.594;2022-10-15T14:58:18;10.77;;;5.63;;
75283;SDS011;63877;48.702;44.594;2022-10-15T15:00:46;13.40;;;4.00;;
75283;SDS011;63877;48.702;44.594;2022-10-15T15:03:19;11.55;;;5.80;;
75283;SDS011;63877;48.702;44.594;2022-10-15T15:05:51;8.95;;;5.65;;
75283;SDS011;63877;48.702;44.594;2022-10-15T15:08:19;17.80;;;7.00;;
75283;SDS011;63877;48.702;44.594;2022-10-15T15:10:46;8.68;;;5.82;;
75283;SDS011;63877;48.702;44.594;2022-10-15T15:13:23;15.23;;;5.70;;
75283;SDS011;63877;48.702;44.594;2022-10-15T15:15:51;17.63;;;10.05;;
75283;SDS011;63877;48.702;44.594;2022-10-15T15:18:17;18.85;;;10.18;;
75283;SDS011;63877;48.702;44.594;2022-10-15T15:20:44;25.67;;;10.82;;
75283;SDS011;63877;48.702;44.594;2022-10-15T15:23:19;35.78;;;7.00;;
75283;SDS011;63877;48.702;44.594;2022-10-15T15:25:48;14.23;;;7.03;;
75283;SDS011;63877;48.702;44.594;2022-10-15T15:28:16;14.98;;;6.15;;
75283;SDS011;63877;48.702;44.594;2022-10-15T15:30:49;18.15;;;8.10;;
75283;SDS011;63877;48.702;44.594;2022-10-15T15:33:20;21.63;;;9.68;;
75283;SDS011;63877;48.702;44.594;2022-10-15T15:35:50;15.25;;;8.00;;
75283;SDS011;63877;48.702;44.594;2022-10-15T15:38:19;21.20;;;8.27;;
75283;SDS011;63877;48.702;44.594;2022-10-15T15:40:49;12.10;;;6.18;;
75283;SDS011;63877;48.702;44.594;2022-10-15T15:43:16;18.98;;;7.57;;
75283;SDS011;63877;48.702;44.594;2022-10-15T15:45:43;11.02;;;6.72;;
75283;SDS011;63877;48.702;44.594;2022-10-15T15:48:10;9.52;;;5.68;;
75283;SDS011;63877;48.702;44.594;2022-10-15T15:50:37;19.60;;;6.65;;
75283;SDS011;63877;48.702;44.594;2022-10-15T15:53:03;21.35;;;6.95;;
75283;SDS011;63877;48.702;44.594;2022-10-15T15:55:29;12.10;;;5.65;;
75283;SDS011;63877;48.702;44.594;2022-10-15T15:57:55;13.73;;;6.47;;
75283;SDS011;63877;48.702;44.594;2022-10-15T16:00:21;10.48;;;4.50;;
75283;SDS011;63877;48.702;44.594;2022-10-15T16:02:47;10.30;;;5.07;;
75283;SDS011;63877;48.702;44.594;2022-10-15T16:05:13;5.93;;;3.28;;
75283;SDS011;63877;48.702;44.594;2022-10-15T16:07:41;14.63;;;4.57;;
75283;SDS011;63877;48.702;44.594;2022-10-15T16:10:08;11.80;;;3.50;;
75283;SDS011;63877;48.702;44.594;2022-10-15T16:12:39;4.47;;;2.75;;
75283;SDS011;63877;48.702;44.594;2022-10-15T16:15:07;7.30;;;3.70;;
75283;SDS011;63877;48.702;44.594;2022-10-15T16:17:35;6.35;;;3.70;;
75283;SDS011;63877;48.702;44.594;2022-10-15T16:20:02;16.98;;;4.05;;
75283;SDS011;63877;48.702;44.594;2022-10-15T16:22:28;7.10;;;3.95;;
75283;SDS011;63877;48.702;44.594;2022-10-15T16:24:54;5.28;;;2.72;;
75283;SDS011;63877;48.702;44.594;2022-10-15T16:27:20;5.45;;;3.10;;
75283;SDS011;63877;48.702;44.594;2022-10-15T16:29:47;6.25;;;3.13;;
75283;SDS011;63877;48.702;44.594;2022-10-15T16:32:13;9.45;;;4.57;;
75283;SDS011;63877;48.702;44.594;2022-10-15T16:34:39;8.60;;;4.15;;
75283;SDS011;63877;48.702;44.594;2022-10-15T16:37:04;6.75;;;3.90;;
75283;SDS011;63877;48.702;44.594;2022-10-15T16:39:30;6.50;;;4.32;;
75283;SDS011;63877;48.702;44.594;2022-10-15T16:41:56;7.65;;;4.90;;
75283;SDS011;63877;48.702;44.594;2022-10-15T16:44:22;9.57;;;4.63;;
75283;SDS011;63877;48.702;44.594;2022-10-15T16:46:48;12.45;;;4.13;;
75283;SDS011;63877;48.702;44.594;2022-10-15T16:49:14;9.68;;;4.38;;
75283;SDS011;63877;48.702;44.594;2022-10-15T16:51:40;9.40;;;4.88;;
75283;SDS011;63877;48.702;44.594;2022-10-15T16:54:08;9.93;;;4.22;;